createdAt,value
2022-11-14T00:01:11.279Z,43.92
2022-11-14T00:03:38.237Z,49.90
2022-11-14T00:06:06.922Z,46.53
2022-11-14T00:08:35.388Z,51.75
2022-11-14T00:11:02.888Z,46.08
2022-11-14T00:13:30.861Z,46.25
2022-11-14T00:15:57.647Z,48.88
2022-11-14T00:18:24.382Z,50.38
2022-11-14T00:20:53.168Z,49.65
2022-11-14T00:23:22.796Z,52.92
2022-11-14T00:25:50.017Z,58.13
2022-11-14T00:28:16.787Z,47.15
2022-11-14T00:30:50.294Z,49.00
2022-11-14T00:33:20.994Z,49.88
2022-11-14T00:35:55.311Z,52.37
2022-11-14T00:38:22.937Z,61.30
2022-11-14T00:40:49.786Z,55.28
2022-11-14T00:43:16.492Z,50.70
2022-11-14T00:45:45.064Z,50.03
2022-11-14T00:48:11.772Z,57.63
2022-11-14T00:50:38.506Z,50.03
2022-11-14T00:53:05.494Z,55.20
2022-11-14T00:55:32.199Z,49.35
2022-11-14T00:57:58.990Z,53.85
2022-11-14T01:00:25.847Z,52.13
2022-11-14T01:02:57.781Z,50.50
2022-11-14T01:05:25.475Z,52.17
2022-11-14T01:07:53.890Z,53.72
2022-11-14T01:10:21.087Z,52.22
2022-11-14T01:12:47.827Z,46.22
2022-11-14T01:15:14.655Z,50.60
2022-11-14T01:17:41.439Z,51.45
2022-11-14T01:20:08.628Z,48.50
2022-11-14T01:22:35.359Z,48.13
2022-11-14T01:25:02.153Z,50.85
2022-11-14T01:27:31.662Z,52.72
2022-11-14T01:29:58.398Z,46.33
2022-11-14T01:32:27.450Z,46.33
2022-11-14T01:34:54.219Z,48.83
2022-11-14T01:37:20.973Z,46.15
2022-11-14T01:39:47.778Z,46.80
2022-11-14T01:42:14.526Z,43.88
2022-11-14T01:44:46.636Z,45.65
2022-11-14T01:47:18.651Z,45.40
2022-11-14T01:49:48.998Z,45.42
2022-11-14T01:52:41.233Z,42.88
2022-11-14T01:55:10.591Z,45.90
2022-11-14T01:57:42.382Z,42.78
2022-11-14T02:00:11.912Z,44.47
2022-11-14T02:02:38.927Z,48.88
2022-11-14T02:05:12.810Z,43.00
2022-11-14T02:07:43.804Z,45.17
2022-11-14T02:10:19.993Z,44.83
2022-11-14T02:12:47.241Z,49.28
2022-11-14T02:15:14.799Z,46.95
2022-11-14T02:17:42.877Z,45.75
2022-11-14T02:20:12.478Z,44.78
2022-11-14T02:22:41.763Z,44.93
2022-11-14T02:25:10.501Z,47.45
2022-11-14T02:27:39.422Z,44.47
2022-11-14T02:30:09.055Z,44.40
2022-11-14T02:33:09.926Z,49.28
2022-11-14T02:35:22.811Z,46.30
2022-11-14T02:37:50.020Z,48.35
2022-11-14T02:40:17.061Z,45.40
2022-11-14T02:42:43.792Z,52.88
2022-11-14T02:45:12.443Z,48.53
2022-11-14T02:47:40.327Z,47.30
2022-11-14T02:50:07.294Z,45.17
2022-11-14T02:52:34.069Z,45.65
2022-11-14T02:55:00.948Z,45.60
2022-11-14T02:57:27.852Z,44.53
2022-11-14T02:59:54.628Z,45.40
2022-11-14T03:02:27.544Z,52.50
2022-11-14T03:04:54.433Z,45.35
2022-11-14T03:07:21.359Z,46.90
2022-11-14T03:09:48.125Z,49.75
2022-11-14T03:12:18.908Z,49.95
2022-11-14T03:14:46.034Z,48.75
2022-11-14T03:17:12.981Z,49.83
2022-11-14T03:19:39.873Z,47.50
2022-11-14T03:22:06.735Z,46.47
2022-11-14T03:24:33.732Z,46.50
2022-11-14T03:27:00.641Z,50.00
2022-11-14T03:29:29.055Z,45.15
2022-11-14T03:31:55.884Z,48.08
2022-11-14T03:34:22.593Z,47.28
2022-11-14T03:36:49.367Z,47.28
2022-11-14T03:39:16.325Z,43.80
2022-11-14T03:41:43.229Z,47.00
2022-11-14T03:44:10.135Z,45.72
2022-11-14T03:46:36.896Z,51.10
2022-11-14T03:49:04.073Z,47.38
2022-11-14T03:51:30.806Z,46.33
2022-11-14T03:53:57.512Z,41.17
2022-11-14T03:56:24.392Z,44.53
2022-11-14T03:58:51.083Z,42.75
2022-11-14T04:01:17.815Z,43.40
2022-11-14T04:03:44.748Z,44.72
2022-11-14T04:06:11.493Z,46.17
2022-11-14T04:08:40.807Z,55.40
2022-11-14T04:11:07.971Z,54.05
2022-11-14T04:13:34.905Z,45.83
2022-11-14T04:16:01.615Z,48.65
2022-11-14T04:18:29.075Z,44.92
2022-11-14T04:20:56.054Z,53.47
2022-11-14T04:23:22.777Z,58.15
2022-11-14T04:25:49.735Z,47.83
2022-11-14T04:28:16.714Z,45.58
2022-11-14T04:30:45.227Z,44.92
2022-11-14T04:33:12.241Z,46.85
2022-11-14T04:35:40.173Z,45.72
2022-11-14T04:38:07.130Z,48.13
2022-11-14T04:40:36.177Z,47.95
2022-11-14T04:43:02.900Z,46.53
2022-11-14T04:45:29.827Z,46.05
2022-11-14T04:47:56.540Z,49.20
2022-11-14T04:50:23.278Z,51.53
2022-11-14T04:52:53.847Z,54.25
2022-11-14T04:57:47.337Z,50.65
2022-11-14T05:00:14.700Z,48.65
2022-11-14T05:02:41.395Z,46.85
2022-11-14T05:05:08.543Z,50.65
2022-11-14T05:07:35.337Z,48.28
2022-11-14T05:10:02.118Z,52.58
2022-11-14T05:12:28.819Z,45.53
2022-11-14T05:14:55.584Z,47.58
2022-11-14T05:17:22.602Z,48.88
2022-11-14T05:19:49.342Z,47.85
2022-11-14T05:22:16.062Z,48.85
2022-11-14T05:24:42.754Z,53.63
2022-11-14T05:27:09.677Z,48.67
2022-11-14T05:29:36.418Z,50.15
2022-11-14T05:32:03.288Z,52.22
2022-11-14T05:34:30.087Z,64.38
2022-11-14T05:36:56.789Z,58.83
2022-11-14T05:39:23.499Z,53.50
2022-11-14T05:41:50.283Z,49.38
2022-11-14T05:44:17.008Z,49.03
2022-11-14T05:46:43.730Z,54.15
2022-11-14T05:49:10.448Z,46.70
2022-11-14T05:51:37.144Z,47.17
2022-11-14T05:54:04.170Z,46.40
2022-11-14T05:56:30.927Z,44.35
2022-11-14T05:58:57.694Z,50.30
2022-11-14T06:01:24.443Z,51.33
2022-11-14T06:03:51.253Z,47.75
2022-11-14T06:06:20.912Z,51.65
2022-11-14T06:08:48.265Z,46.22
2022-11-14T06:11:19.758Z,48.33
2022-11-14T06:13:46.885Z,47.08
2022-11-14T06:16:16.239Z,50.50
2022-11-14T06:18:43.388Z,52.05
2022-11-14T06:21:15.259Z,51.80
2022-11-14T06:23:42.547Z,52.75
2022-11-14T06:26:32.322Z,50.67
2022-11-14T06:29:00.181Z,50.70
2022-11-14T06:31:27.501Z,45.70
2022-11-14T06:33:54.582Z,51.60
2022-11-14T06:36:21.409Z,51.70
2022-11-14T06:38:48.162Z,59.63
2022-11-14T06:41:17.602Z,53.15
2022-11-14T06:43:46.335Z,50.95
2022-11-14T06:46:15.734Z,50.67
2022-11-14T06:48:43.789Z,52.67
2022-11-14T06:51:12.267Z,48.15
2022-11-14T06:53:39.577Z,48.33
2022-11-14T06:56:17.867Z,51.13
2022-11-14T06:58:47.051Z,51.10
2022-11-14T07:01:20.934Z,51.03
2022-11-14T07:03:48.354Z,53.20
2022-11-14T07:06:23.647Z,56.00
2022-11-14T07:08:51.564Z,51.67
2022-11-14T07:11:23.839Z,51.80
2022-11-14T07:13:52.057Z,56.42
2022-11-14T07:16:19.883Z,54.25
2022-11-14T07:18:46.707Z,52.30
2022-11-14T07:21:13.592Z,58.72
2022-11-14T07:23:41.501Z,51.38
2022-11-14T07:26:10.667Z,55.00
2022-11-14T07:28:39.832Z,53.45
2022-11-14T07:31:08.488Z,58.10
2022-11-14T07:33:35.793Z,54.13
2022-11-14T07:36:02.749Z,56.25
2022-11-14T07:38:31.962Z,51.17
2022-11-14T07:41:07.231Z,51.70
2022-11-14T07:43:34.234Z,50.10
2022-11-14T07:46:02.247Z,50.13
2022-11-14T07:48:30.353Z,52.85
2022-11-14T07:51:04.860Z,45.50
2022-11-14T07:53:32.798Z,50.53
2022-11-14T07:56:05.375Z,48.95
2022-11-14T07:58:34.736Z,51.95
2022-11-14T08:01:02.694Z,48.83
2022-11-14T08:03:29.661Z,56.28
2022-11-14T08:06:11.754Z,54.13
2022-11-14T08:08:38.627Z,53.35
2022-11-14T08:11:05.596Z,47.42
2022-11-14T08:13:33.742Z,49.40
2022-11-14T08:16:12.283Z,52.75
2022-11-14T08:18:40.501Z,54.50
2022-11-14T08:21:07.365Z,52.17
2022-11-14T08:23:34.296Z,56.88
2022-11-14T08:26:01.077Z,56.40
2022-11-14T08:28:28.531Z,56.42
2022-11-14T08:31:02.924Z,51.83
2022-11-14T08:33:30.538Z,53.75
2022-11-14T08:36:04.972Z,58.47
2022-11-14T08:38:33.715Z,51.70
2022-11-14T08:41:02.084Z,55.78
2022-11-14T08:43:29.772Z,52.13
2022-11-14T08:46:02.420Z,53.22
2022-11-14T08:48:30.555Z,51.92
2022-11-14T08:50:58.093Z,54.28
2022-11-14T08:53:24.975Z,52.13
2022-11-14T08:55:51.684Z,52.85
2022-11-14T08:58:18.403Z,56.10
2022-11-14T09:00:45.583Z,54.60
2022-11-14T09:03:16.200Z,54.20
2022-11-14T09:05:43.652Z,50.97
2022-11-14T09:08:10.363Z,52.05
2022-11-14T09:10:37.757Z,51.40
2022-11-14T09:13:04.760Z,59.45
2022-11-14T09:15:31.739Z,56.42
2022-11-14T09:17:58.709Z,54.60
2022-11-14T09:20:32.255Z,54.50
2022-11-14T09:23:02.296Z,51.92
2022-11-14T09:25:30.049Z,50.25
2022-11-14T09:27:57.249Z,54.92
2022-11-14T09:30:24.148Z,53.00
2022-11-14T09:32:51.376Z,51.17
2022-11-14T09:35:18.138Z,47.88
2022-11-14T09:37:44.845Z,51.50
2022-11-14T09:40:13.619Z,50.20
2022-11-14T09:42:58.847Z,51.97
2022-11-14T09:45:25.942Z,53.58
2022-11-14T09:48:15.605Z,49.78
2022-11-14T09:51:10.419Z,49.83
2022-11-14T09:53:46.318Z,49.88
2022-11-14T09:56:17.124Z,49.13
2022-11-14T09:58:43.869Z,47.50
2022-11-14T10:01:28.601Z,49.08
2022-11-14T10:04:39.049Z,51.67
2022-11-14T10:07:24.088Z,50.63
2022-11-14T10:10:00.719Z,45.58
2022-11-14T10:12:43.338Z,48.15
2022-11-14T10:15:13.523Z,43.88
2022-11-14T10:18:08.855Z,52.55
2022-11-14T10:20:47.720Z,46.72
2022-11-14T10:23:22.413Z,47.28
2022-11-14T10:25:56.208Z,41.15
2022-11-14T10:28:47.584Z,43.28
2022-11-14T10:31:29.204Z,44.97
2022-11-14T10:34:13.542Z,43.00
2022-11-14T10:37:15.305Z,41.20
2022-11-14T10:40:05.319Z,48.40
2022-11-14T10:42:39.338Z,41.80
2022-11-14T10:45:09.107Z,45.90
2022-11-14T10:47:43.951Z,41.88
2022-11-14T10:50:26.644Z,44.97
2022-11-14T10:53:02.032Z,42.22
2022-11-14T10:55:57.273Z,39.78
2022-11-14T10:58:15.858Z,45.33
2022-11-14T11:00:42.697Z,42.33
2022-11-14T11:03:09.565Z,41.38
2022-11-14T11:05:47.147Z,41.55
2022-11-14T11:08:43.259Z,48.15
2022-11-14T11:11:30.192Z,46.20
2022-11-14T11:14:01.454Z,44.22
2022-11-14T11:16:29.665Z,43.17
2022-11-14T11:19:19.522Z,41.67
2022-11-14T11:21:52.230Z,44.28
2022-11-14T11:24:36.276Z,42.30
2022-11-14T11:27:22.772Z,42.17
2022-11-14T11:30:08.444Z,80.03
2022-11-14T11:32:35.554Z,40.55
2022-11-14T11:35:09.274Z,42.03
2022-11-14T11:37:48.903Z,43.97
2022-11-14T11:40:20.070Z,40.43
2022-11-14T11:43:37.445Z,43.25
2022-11-14T11:45:54.223Z,44.70
2022-11-14T11:48:22.756Z,46.25
2022-11-14T11:50:50.365Z,50.78
2022-11-14T11:53:26.680Z,44.55
2022-11-14T11:56:13.477Z,42.83
2022-11-14T11:58:53.770Z,50.67
2022-11-14T12:01:20.727Z,45.78
2022-11-14T12:03:51.791Z,52.58
2022-11-14T12:06:27.704Z,47.08
2022-11-14T12:09:19.296Z,48.15
2022-11-14T12:11:54.199Z,44.20
2022-11-14T12:14:32.866Z,41.67
2022-11-14T12:17:20.612Z,42.65
2022-11-14T12:20:08.732Z,45.05
2022-11-14T12:23:12.544Z,45.55
2022-11-14T12:25:48.980Z,47.10
2022-11-14T12:28:58.987Z,45.67
2022-11-14T12:31:33.799Z,42.22
2022-11-14T12:34:20.893Z,47.80
2022-11-14T12:36:47.979Z,48.08
2022-11-14T12:39:31.676Z,45.00
2022-11-14T12:42:14.592Z,43.83
2022-11-14T12:44:41.416Z,44.28
2022-11-14T12:47:08.136Z,44.72
2022-11-14T12:49:53.312Z,43.03
2022-11-14T12:52:49.083Z,41.42
2022-11-14T12:55:18.914Z,40.72
2022-11-14T12:58:16.909Z,42.85
2022-11-14T13:00:46.394Z,43.63
2022-11-14T13:03:31.484Z,44.20
2022-11-14T13:06:07.474Z,37.15
2022-11-14T13:09:13.269Z,45.25
2022-11-14T13:12:06.890Z,40.05
2022-11-14T13:15:11.377Z,43.63
2022-11-14T13:17:56.902Z,42.53
2022-11-14T13:20:52.304Z,42.25
2022-11-14T13:23:28.441Z,43.67
2022-11-14T13:26:10.816Z,44.53
2022-11-14T13:28:37.598Z,41.70
2022-11-14T13:31:16.739Z,43.35
2022-11-14T13:33:49.793Z,42.80
2022-11-14T13:36:53.628Z,42.40
2022-11-14T13:39:23.800Z,40.53
2022-11-14T13:42:16.780Z,41.38
2022-11-14T13:45:36.075Z,37.83
2022-11-14T13:48:23.573Z,39.03
2022-11-14T13:50:55.394Z,39.88
2022-11-14T13:53:25.412Z,40.33
2022-11-14T13:56:07.003Z,39.65
2022-11-14T13:58:46.030Z,37.33
2022-11-14T14:01:29.043Z,37.35
2022-11-14T14:04:14.574Z,33.03
2022-11-14T14:06:50.531Z,35.63
2022-11-14T14:09:28.488Z,37.22
2022-11-14T14:12:10.500Z,41.17
2022-11-14T14:14:44.362Z,42.15
2022-11-14T14:17:32.873Z,35.83
2022-11-14T14:20:21.034Z,40.15
2022-11-14T14:23:24.994Z,40.58
2022-11-14T14:26:19.772Z,41.42
2022-11-14T14:29:01.394Z,38.30
2022-11-14T14:31:37.833Z,40.67
2022-11-14T14:34:31.152Z,40.90
2022-11-14T14:36:58.684Z,39.95
2022-11-14T14:39:27.769Z,38.58
2022-11-14T14:41:57.304Z,37.17
2022-11-14T14:44:39.522Z,42.73
2022-11-14T14:47:41.376Z,39.13
2022-11-14T14:50:20.939Z,41.17
2022-11-14T14:52:58.545Z,39.60
2022-11-14T14:55:26.830Z,44.60
2022-11-14T14:57:53.525Z,47.45
2022-11-14T15:00:29.682Z,43.15
2022-11-14T15:02:57.013Z,38.90
2022-11-14T15:05:29.749Z,39.75
2022-11-14T15:08:00.697Z,42.80
2022-11-14T15:10:30.122Z,38.83
2022-11-14T15:12:58.471Z,40.20
2022-11-14T15:15:26.769Z,44.40
2022-11-14T15:17:56.027Z,40.22
2022-11-14T15:20:27.859Z,39.88
2022-11-14T15:23:10.440Z,36.85
2022-11-14T15:25:37.817Z,40.95
2022-11-14T15:28:13.754Z,40.92
2022-11-14T15:30:40.566Z,41.53
2022-11-14T15:33:29.559Z,40.63
2022-11-14T15:36:06.744Z,40.65
2022-11-14T15:38:48.978Z,42.22
2022-11-14T15:41:23.080Z,47.25
2022-11-14T15:43:53.436Z,43.85
2022-11-14T15:46:27.603Z,39.08
2022-11-14T15:48:54.985Z,44.90
2022-11-14T15:51:44.254Z,42.80
2022-11-14T15:54:28.098Z,43.95
2022-11-14T15:56:57.601Z,47.35
2022-11-14T15:59:25.779Z,43.65
2022-11-14T16:02:12.133Z,47.78
2022-11-14T16:04:43.054Z,47.08
2022-11-14T16:07:14.443Z,56.38
2022-11-14T16:09:41.724Z,56.97
2022-11-14T16:12:08.980Z,51.47
2022-11-14T16:14:36.191Z,48.67
2022-11-14T16:17:03.229Z,51.15
2022-11-14T16:19:30.314Z,46.67
2022-11-14T16:22:02.854Z,44.45
2022-11-14T16:24:34.026Z,48.97
2022-11-14T16:27:01.388Z,49.55
2022-11-14T16:29:28.138Z,49.10
2022-11-14T16:31:55.569Z,52.70
2022-11-14T16:34:26.789Z,57.40
2022-11-14T16:37:04.062Z,53.17
2022-11-14T16:39:31.035Z,51.78
2022-11-14T16:42:05.405Z,49.90
2022-11-14T16:44:38.976Z,50.72
2022-11-14T16:47:11.959Z,56.13
2022-11-14T16:49:38.997Z,47.08
2022-11-14T16:52:08.736Z,64.75
2022-11-14T16:54:35.594Z,55.50
2022-11-14T16:57:02.465Z,53.63
2022-11-14T16:59:29.822Z,56.97
2022-11-14T17:01:56.625Z,57.92
2022-11-14T17:04:24.610Z,56.53
2022-11-14T17:06:51.416Z,52.28
2022-11-14T17:09:18.280Z,55.50
2022-11-14T17:11:45.141Z,54.55
2022-11-14T17:14:12.315Z,51.05
2022-11-14T17:16:39.702Z,52.13
2022-11-14T17:19:06.968Z,56.30
2022-11-14T17:21:33.776Z,55.03
2022-11-14T17:24:01.619Z,61.45
2022-11-14T17:26:29.088Z,57.35
2022-11-14T17:28:56.112Z,53.25
2022-11-14T17:31:23.147Z,53.97
2022-11-14T17:33:55.463Z,64.43
2022-11-14T17:36:23.960Z,58.58
2022-11-14T17:38:50.926Z,47.65
2022-11-14T17:41:18.150Z,52.92
2022-11-14T17:43:45.133Z,46.08
2022-11-14T17:46:15.851Z,51.35
2022-11-14T17:48:44.543Z,48.75
2022-11-14T17:51:14.610Z,52.17
2022-11-14T17:53:42.540Z,48.60
2022-11-14T17:56:16.235Z,53.47
2022-11-14T17:58:45.013Z,58.67
2022-11-14T18:01:14.241Z,57.15
2022-11-14T18:03:41.457Z,51.17
2022-11-14T18:06:09.809Z,54.75
2022-11-14T18:08:36.676Z,57.05
2022-11-14T18:11:05.965Z,53.55
2022-11-14T18:13:33.101Z,49.85
2022-11-14T18:16:19.362Z,52.05
2022-11-14T18:18:46.442Z,52.10
2022-11-14T18:21:16.843Z,47.47
2022-11-14T18:23:44.576Z,56.85
2022-11-14T18:26:15.705Z,50.15
2022-11-14T18:28:44.253Z,48.60
2022-11-14T18:31:12.482Z,47.33
2022-11-14T18:33:40.388Z,50.83
2022-11-14T18:36:12.133Z,47.88
2022-11-14T18:38:40.952Z,46.28
2022-11-14T18:41:10.464Z,43.97
2022-11-14T18:43:37.222Z,44.42
2022-11-14T18:46:25.343Z,44.25
2022-11-14T18:48:57.571Z,39.95
2022-11-14T18:51:27.831Z,39.05
2022-11-14T18:53:56.178Z,43.65
2022-11-14T18:56:25.411Z,50.13
2022-11-14T18:58:54.591Z,51.00
2022-11-14T19:01:26.072Z,52.83
2022-11-14T19:03:56.163Z,50.78
2022-11-14T19:06:22.923Z,43.78
2022-11-14T19:08:49.709Z,46.05
2022-11-14T19:11:36.755Z,44.45
2022-11-14T19:14:05.611Z,41.28
2022-11-14T19:16:34.421Z,40.22
2022-11-14T19:19:01.627Z,45.70
2022-11-14T19:21:28.882Z,46.03
2022-11-14T19:23:57.195Z,45.38
2022-11-14T19:26:24.153Z,46.08
2022-11-14T19:28:53.357Z,41.75
2022-11-14T19:31:22.494Z,46.03
2022-11-14T19:33:50.923Z,44.53
2022-11-14T19:36:52.743Z,43.75
2022-11-14T19:39:08.414Z,47.95
2022-11-14T19:41:35.287Z,45.83
2022-11-14T19:44:02.758Z,47.50
2022-11-14T19:46:30.245Z,51.88
2022-11-14T19:48:58.628Z,54.60
2022-11-14T19:51:26.201Z,47.83
2022-11-14T19:53:53.684Z,47.15
2022-11-14T19:56:21.394Z,43.03
2022-11-14T19:58:49.611Z,44.75
2022-11-14T20:01:22.483Z,43.20
2022-11-14T20:03:55.154Z,47.53
2022-11-14T20:06:34.217Z,66.43
2022-11-14T20:09:10.764Z,52.92
2022-11-14T20:11:37.806Z,49.38
2022-11-14T20:14:06.268Z,49.13
2022-11-14T20:16:35.581Z,47.10
2022-11-14T20:19:02.727Z,56.55
2022-11-14T20:21:31.300Z,50.60
2022-11-14T20:23:58.360Z,52.58
2022-11-14T20:26:25.818Z,50.97
2022-11-14T20:28:53.939Z,50.28
2022-11-14T20:31:27.217Z,54.03
2022-11-14T20:33:55.154Z,53.55
2022-11-14T20:36:31.985Z,49.83
2022-11-14T20:39:06.229Z,50.10
2022-11-14T20:41:33.926Z,59.42
2022-11-14T20:44:02.205Z,58.20
2022-11-14T20:46:29.226Z,65.10
2022-11-14T20:48:56.974Z,68.35
2022-11-14T20:51:25.019Z,87.32
2022-11-14T20:53:53.758Z,70.82
2022-11-14T20:56:21.727Z,62.58
2022-11-14T20:58:52.249Z,53.88
2022-11-14T21:03:46.845Z,61.33
2022-11-14T21:06:15.139Z,52.42
2022-11-14T21:08:42.493Z,61.97
2022-11-14T21:11:18.083Z,57.47
2022-11-14T21:13:56.921Z,61.55
2022-11-14T21:16:41.749Z,59.03
2022-11-14T21:19:08.517Z,70.18
2022-11-14T21:21:37.421Z,67.80
2022-11-14T21:24:05.114Z,62.05
2022-11-14T21:26:34.242Z,81.47
2022-11-14T21:29:04.232Z,61.75
2022-11-14T21:31:34.348Z,69.20
2022-11-14T21:34:03.939Z,58.30
2022-11-14T21:36:45.033Z,51.80
2022-11-14T21:39:15.729Z,55.15
2022-11-14T21:44:13.204Z,55.00
2022-11-14T21:46:40.701Z,64.95
2022-11-14T21:49:07.505Z,62.60
2022-11-14T21:51:34.896Z,66.72
2022-11-14T21:54:03.016Z,61.67
2022-11-14T21:56:31.921Z,58.33
2022-11-14T21:59:14.054Z,59.00
2022-11-14T22:02:02.137Z,64.10
2022-11-14T22:04:29.879Z,63.25
2022-11-14T22:06:58.466Z,63.15
2022-11-14T22:09:28.197Z,61.92
2022-11-14T22:11:58.445Z,63.20
2022-11-14T22:14:25.537Z,62.03
2022-11-14T22:16:52.560Z,61.33
2022-11-14T22:19:19.260Z,56.67
2022-11-14T22:21:46.420Z,57.22
2022-11-14T22:24:13.124Z,65.47
2022-11-14T22:26:40.470Z,64.00
2022-11-14T22:29:08.019Z,67.63
2022-11-14T22:31:35.102Z,62.22
2022-11-14T22:34:01.906Z,61.97
2022-11-14T22:36:29.077Z,64.43
2022-11-14T22:38:56.885Z,65.88
2022-11-14T22:41:29.179Z,69.20
2022-11-14T22:43:59.922Z,68.00
2022-11-14T22:46:27.457Z,64.00
2022-11-14T22:48:55.102Z,68.80
2022-11-14T22:51:26.896Z,71.20
2022-11-14T22:53:56.219Z,61.08
2022-11-14T22:56:25.289Z,67.07
2022-11-14T22:58:52.383Z,62.17
2022-11-14T23:01:20.708Z,65.70
2022-11-14T23:03:48.220Z,64.40
2022-11-14T23:06:18.135Z,69.93
2022-11-14T23:08:45.580Z,86.43
2022-11-14T23:11:15.805Z,73.30
2022-11-14T23:13:44.769Z,68.97
2022-11-14T23:16:16.325Z,71.90
2022-11-14T23:18:43.342Z,82.43
2022-11-14T23:21:14.238Z,73.53
2022-11-14T23:23:41.591Z,69.47
2022-11-14T23:26:14.396Z,68.63
2022-11-14T23:28:41.821Z,73.38
2022-11-14T23:31:10.155Z,74.55
2022-11-14T23:33:37.064Z,83.82
2022-11-14T23:36:04.350Z,83.95
2022-11-14T23:38:31.235Z,82.22
2022-11-14T23:41:00.144Z,78.03
2022-11-14T23:43:28.385Z,109.38
2022-11-14T23:45:55.895Z,97.63
2022-11-14T23:48:23.129Z,78.75
2022-11-14T23:50:54.937Z,81.13
2022-11-14T23:53:22.696Z,75.50
2022-11-14T23:55:53.196Z,89.88
